Terminal Aerodrome Forecast
Issued by NWS

Home | Current Version | Previous Version | Text Only | Print | Product List | Glossary On
Versions: 1 2 3 4 5 6 7 8 9 10 11 12 13 14 15 16 17 18 19
000
FTUS43 KSGF 061100
TAFBBG
TAF
KBBG 061120Z 0612/0712 VRB04KT P6SM BKN250 WS017/22035KT
     FM061500 19010G18KT P6SM SCT040 BKN250
     FM061800 19010G18KT P6SM VCTS BKN040CB
     FM062300 19005KT P6SM SCT050 BKN120
     FM070800 19005KT 5SM -TSRA BR SCT020 OVC035CB=

USA.gov is the U.S. government's official web portal to all federal, state and local government web resources and services.